Time;durP1;ratioP1;P1;durP2;ratioP2;P2;SDS_P1;SDS_P2;PMS_P1;PMS_P2;Temp;Humidity;BMP_temperature;BMP_pressure;BME280_temperature;BME280_humidity;BME280_pressure;Samples;Min_cycle;Max_cycle;Signal;HPM_P1;HPM_P2
2022/05/19 00:01:31;;;;;;;1.42;0.90;;;;;;;5.84;100.00;62599.06;5084521;28;20200;-72
2022/05/19 00:03:57;;;;;;;0.82;0.82;;;;;;;5.76;100.00;62593.34;5067142;28;20216;-73
2022/05/19 00:06:26;;;;;;;0.82;0.82;;;;;;;5.70;100.00;62589.69;5065605;28;20521;-73
2022/05/19 00:08:53;;;;;;;1.05;0.82;;;;;;;5.71;100.00;62588.69;5066098;28;20429;-73
2022/05/19 00:11:27;;;;;;;7.05;0.93;;;;;;;5.75;100.00;62592.81;5074771;28;20224;-73
2022/05/19 00:13:53;;;;;;;0.90;0.90;;;;;;;5.78;100.00;62590.34;5066060;28;20201;-72
2022/05/19 00:16:20;;;;;;;3.03;0.88;;;;;;;5.79;100.00;62594.44;5066517;28;20185;-73
2022/05/19 00:18:47;;;;;;;1.05;0.95;;;;;;;5.74;100.00;62591.28;5068076;28;20186;-73
2022/05/19 00:21:14;;;;;;;0.68;0.68;;;;;;;5.71;100.00;62590.72;5081162;28;20499;-72
2022/05/19 00:23:42;;;;;;;2.10;1.20;;;;;;;5.72;100.00;62589.22;5085648;28;20204;-72
2022/05/19 00:26:09;;;;;;;5.15;1.20;;;;;;;5.71;100.00;62583.16;5085531;28;20238;-73
2022/05/19 00:28:36;;;;;;;0.90;0.90;;;;;;;5.79;100.00;62594.44;5085049;28;20197;-74
2022/05/19 00:31:03;;;;;;;1.50;1.00;;;;;;;5.81;100.00;62595.97;5081054;28;20255;-73
2022/05/19 00:33:30;;;;;;;1.13;1.10;;;;;;;5.81;100.00;62598.50;5085394;28;20238;-72
2022/05/19 00:35:57;;;;;;;1.50;0.82;;;;;;;5.77;100.00;62596.91;5085142;28;20270;-73
2022/05/19 00:38:23;;;;;;;4.47;0.90;;;;;;;5.75;100.00;62594.81;5081998;28;20394;-73
2022/05/19 00:40:54;;;;;;;2.58;1.10;;;;;;;5.75;100.00;62589.78;5083468;28;20227;-72
2022/05/19 00:43:27;;;;;;;2.22;0.98;;;;;;;5.67;100.00;62589.63;5084954;28;20310;-73
2022/05/19 00:45:57;;;;;;;0.80;0.80;;;;;;;5.64;100.00;62581.47;5084868;28;20236;-72
2022/05/19 00:48:30;;;;;;;1.40;1.30;;;;;;;5.64;100.00;62583.50;5081702;28;20201;-72
2022/05/19 00:51:00;;;;;;;0.80;0.65;;;;;;;5.60;100.00;62579.91;5085092;28;20212;-73
2022/05/19 00:53:32;;;;;;;1.30;1.20;;;;;;;5.62;100.00;62576.91;5085230;28;20197;-72
2022/05/19 00:56:05;;;;;;;1.25;1.15;;;;;;;5.61;100.00;62572.81;5083574;28;20220;-73
2022/05/19 00:58:35;;;;;;;5.72;1.80;;;;;;;5.54;100.00;62568.66;5081787;28;20200;-73
2022/05/19 01:01:03;;;;;;;1.48;1.30;;;;;;;5.53;100.00;62570.16;5084805;28;20461;-73
2022/05/19 01:03:34;;;;;;;0.77;0.77;;;;;;;5.52;100.00;62568.63;5084707;28;20270;-72
2022/05/19 01:06:07;;;;;;;6.38;1.92;;;;;;;5.57;100.00;62569.22;5080047;28;20280;-73
2022/05/19 01:08:39;;;;;;;2.88;2.22;;;;;;;5.58;100.00;62572.25;5085094;28;20430;-73
2022/05/19 01:11:09;;;;;;;1.83;1.73;;;;;;;5.59;100.00;62575.84;5085122;28;20335;-72
2022/05/19 01:13:37;;;;;;;6.72;2.33;;;;;;;5.66;100.00;62580.53;5084996;28;20211;-73
2022/05/19 01:16:06;;;;;;;2.90;2.05;;;;;;;5.70;100.00;62587.66;5082017;28;20257;-72
2022/05/19 01:18:34;;;;;;;2.53;2.15;;;;;;;5.66;100.00;62580.53;5085034;28;20196;-71
2022/05/19 01:21:03;;;;;;;5.15;3.63;;;;;;;5.67;100.00;62589.13;5084892;28;20216;-74
2022/05/19 01:23:39;;;;;;;3.50;2.78;;;;;;;5.66;100.00;62580.53;5084571;28;20382;-73
2022/05/19 01:26:16;;;;;;;1.58;1.42;;;;;;;5.62;100.00;62579.44;5085265;28;20293;-73
2022/05/19 01:28:45;;;;;;;2.70;2.50;;;;;;;5.61;100.00;62578.41;5085820;28;20491;-72
2022/05/19 01:31:31;;;;;;;6.75;2.47;;;;;;;5.68;100.00;62585.09;5085421;28;20208;-72
2022/05/19 01:33:58;;;;;;;2.53;2.40;;;;;;;5.71;100.00;62593.75;5081795;28;20205;-72
2022/05/19 01:36:25;;;;;;;3.85;2.30;;;;;;;5.68;100.00;62588.13;5083978;28;20245;-72
2022/05/19 01:39:00;;;;;;;4.10;2.45;;;;;;;5.68;100.00;62582.56;5084155;28;20197;-73
2022/05/19 01:41:39;;;;;;;4.50;3.00;;;;;;;5.69;100.00;62581.06;5083535;28;20537;-72
2022/05/19 01:44:19;;;;;;;2.90;2.17;;;;;;;5.56;100.00;62573.25;5081084;28;20212;-73
2022/05/19 01:46:51;;;;;;;1.60;1.50;;;;;;;5.62;100.00;62576.38;5083906;28;20485;-72
2022/05/19 01:49:27;;;;;;;2.97;1.95;;;;;;;5.58;100.00;62579.84;5086772;28;20223;-72
2022/05/19 01:52:00;;;;;;;2.10;2.00;;;;;;;5.62;100.00;62579.44;5076225;28;20264;-72
2022/05/19 01:54:36;;;;;;;2.50;2.40;;;;;;;5.58;100.00;62574.78;5080417;28;20224;-72
2022/05/19 01:57:10;;;;;;;3.20;2.70;;;;;;;5.59;100.00;62575.84;5078113;28;20194;-73
2022/05/19 01:59:46;;;;;;;5.57;2.60;;;;;;;5.61;100.00;62575.34;5083262;28;20216;-73
2022/05/19 02:02:21;;;;;;;3.17;2.63;;;;;;;5.62;100.00;62579.44;5077211;28;20211;-72
2022/05/19 02:04:52;;;;;;;3.20;2.65;;;;;;;5.73;100.00;62588.22;5083546;28;20228;-72
2022/05/19 02:07:22;;;;;;;2.78;2.58;;;;;;;5.80;100.00;62592.91;5083644;28;20205;-73
2022/05/19 02:09:53;;;;;;;3.70;2.50;;;;;;;5.88;100.00;62605.22;5082547;28;20532;-73
2022/05/19 02:12:21;;;;;;;3.70;3.20;;;;;;;5.96;100.00;62613.44;5078797;28;20196;-72
2022/05/19 02:14:55;;;;;;;3.95;3.55;;;;;;;6.00;100.00;62617.56;5083226;28;20279;-73
2022/05/19 02:17:24;;;;;;;6.18;3.63;;;;;;;6.10;100.00;62628.41;5082925;28;20197;-72
2022/05/19 02:19:56;;;;;;;4.72;4.32;;;;;;;6.15;100.00;62633.56;5081288;28;20516;-73
2022/05/19 02:22:26;;;;;;;3.47;3.15;;;;;;;6.09;100.00;62624.34;5080700;28;20192;-73
2022/05/19 02:24:58;;;;;;;4.43;3.85;;;;;;;6.09;100.00;62624.84;5083329;28;20240;-73
2022/05/19 02:27:38;;;;;;;5.13;4.63;;;;;;;6.07;100.00;62619.75;5082861;28;20224;-72
2022/05/19 02:30:10;;;;;;;4.38;3.90;;;;;;;5.87;100.00;62604.19;5070182;28;20444;-73
2022/05/19 02:32:38;;;;;;;6.95;4.18;;;;;;;5.88;100.00;62600.16;5079233;28;20189;-72
2022/05/19 02:35:07;;;;;;;5.95;4.18;;;;;;;5.95;100.00;62610.41;5083314;28;20221;-74
2022/05/19 02:37:34;;;;;;;5.18;4.68;;;;;;;5.96;100.00;62610.91;5081086;28;20215;-73
2022/05/19 02:40:01;;;;;;;9.48;6.95;;;;;;;6.01;100.00;62613.53;5082104;28;20209;-72
2022/05/19 02:42:28;;;;;;;11.07;6.15;;;;;;;6.08;100.00;62623.28;5080370;28;20404;-72
2022/05/19 02:44:55;;;;;;;6.53;5.65;;;;;;;6.17;100.00;62638.16;5083783;28;20240;-73
2022/05/19 02:47:23;;;;;;;8.27;5.43;;;;;;;6.18;100.00;62631.09;5081311;28;20203;-72
2022/05/19 02:49:50;;;;;;;8.02;5.90;;;;;;;6.02;100.00;62615.09;5083199;28;20329;-73
2022/05/19 02:52:17;;;;;;;4.47;4.07;;;;;;;6.03;100.00;62618.66;5083290;28;20207;-72
2022/05/19 02:54:44;;;;;;;7.05;5.05;;;;;;;6.06;100.00;62624.28;5081953;28;20222;-73
2022/05/19 02:57:11;;;;;;;8.32;6.50;;;;;;;6.07;100.00;62625.31;5073688;28;20211;-73
2022/05/19 02:59:38;;;;;;;8.93;5.72;;;;;;;6.11;100.00;62626.41;5062911;28;20217;-72
2022/05/19 03:02:05;;;;;;;6.88;5.00;;;;;;;5.83;100.00;62595.53;5080613;28;20497;-73
2022/05/19 03:04:33;;;;;;;8.52;5.35;;;;;;;5.80;100.00;62594.94;5083296;28;20224;-73
2022/05/19 03:07:00;;;;;;;4.45;3.95;;;;;;;5.84;100.00;62604.66;5071411;28;20640;-72
2022/05/19 03:09:27;;;;;;;3.60;3.30;;;;;;;5.79;100.00;62598.97;5066934;28;20267;-73
2022/05/19 03:11:54;;;;;;;4.20;3.30;;;;;;;5.81;100.00;62596.50;5066968;28;20197;-73
2022/05/19 03:14:20;;;;;;;4.80;3.65;;;;;;;5.62;100.00;62574.38;5082307;28;20282;-73
2022/05/19 03:16:47;;;;;;;3.67;3.28;;;;;;;5.62;100.00;62578.91;5086131;28;20203;-73
2022/05/19 03:19:16;;;;;;;4.78;3.05;;;;;;;5.65;100.00;62582.53;5087829;28;20243;-72
2022/05/19 03:21:45;;;;;;;2.97;2.25;;;;;;;5.60;100.00;62571.81;5087157;28;20214;-72
2022/05/19 03:24:12;;;;;;;2.58;1.92;;;;;;;5.54;100.00;62566.13;5081142;28;20518;-73
2022/05/19 03:26:39;;;;;;;3.83;2.10;;;;;;;5.65;100.00;62582.00;5084663;28;20217;-72
2022/05/19 03:29:06;;;;;;;1.95;1.85;;;;;;;5.56;100.00;62570.72;5091287;28;20208;-72
2022/05/19 03:31:35;;;;;;;1.90;1.80;;;;;;;5.60;100.00;62571.81;5085154;28;20208;-73
2022/05/19 03:34:03;;;;;;;5.22;2.25;;;;;;;5.65;100.00;62584.53;5082187;28;20251;-73
2022/05/19 03:36:30;;;;;;;2.00;1.90;;;;;;;5.78;100.00;62597.94;5086329;28;20204;-74
2022/05/19 03:38:58;;;;;;;2.28;2.17;;;;;;;5.83;100.00;62603.09;5087088;28;20196;-73
2022/05/19 03:41:25;;;;;;;1.80;1.70;;;;;;;5.91;100.00;62613.88;5084098;28;20207;-73
2022/05/19 03:43:52;;;;;;;2.92;2.72;;;;;;;6.02;100.00;62619.63;5077585;28;20209;-72
2022/05/19 03:46:19;;;;;;;2.40;2.20;;;;;;;6.00;100.00;62610.53;5086774;28;20471;-72
2022/05/19 03:48:47;;;;;;;5.20;3.65;;;;;;;5.85;100.00;62602.63;5086257;28;20502;-72
2022/05/19 03:51:22;;;;;;;5.15;3.38;;;;;;;5.83;100.00;62601.09;5084363;28;20235;-72
2022/05/19 03:53:49;;;;;;;4.50;4.10;;;;;;;5.96;100.00;62610.91;5088071;28;20204;-74
2022/05/19 03:56:20;;;;;;;8.43;6.43;;;;;;;5.74;100.00;62588.75;5070494;28;20205;-73
2022/05/19 03:58:48;;;;;;;12.48;7.43;;;;;;;5.66;100.00;62580.53;5087799;28;20205;-73
2022/05/19 04:01:15;;;;;;;10.18;7.50;;;;;;;5.71;100.00;62590.72;5083129;28;20207;-72
2022/05/19 04:03:42;;;;;;;18.58;8.20;;;;;;;5.88;100.00;62603.72;5086583;28;20197;-74
2022/05/19 04:06:09;;;;;;;15.45;7.68;;;;;;;5.93;100.00;62608.34;5086357;28;20255;-73
2022/05/19 04:08:36;;;;;;;34.00;9.55;;;;;;;6.05;100.00;62620.19;5086370;28;20208;-74
2022/05/19 04:11:04;;;;;;;72.72;11.15;;;;;;;6.07;100.00;62622.25;5080959;28;20529;-73
2022/05/19 04:13:32;;;;;;;47.70;10.27;;;;;;;6.21;100.00;62639.75;5085674;28;20204;-72
2022/05/19 04:15:59;;;;;;;152.48;14.10;;;;;;;6.13;100.00;62628.44;5084177;28;20406;-73
2022/05/19 04:18:26;;;;;;;61.50;11.68;;;;;;;6.26;100.00;62644.38;5083745;28;20235;-73
2022/05/19 04:20:53;;;;;;;88.75;11.88;;;;;;;6.32;100.00;62648.56;5083070;28;20258;-73
2022/05/19 04:23:20;;;;;;;78.78;11.93;;;;;;;6.25;100.00;62641.34;5085782;28;20485;-73
2022/05/19 04:25:47;;;;;;;87.50;13.25;;;;;;;6.40;100.00;62661.84;5083528;28;20243;-72
2022/05/19 04:28:14;;;;;;;44.60;10.07;;;;;;;6.58;100.00;62674.84;5079444;28;20434;-73
2022/05/19 04:30:42;;;;;;;39.92;9.25;;;;;;;6.80;100.00;62702.59;5076657;28;20384;-72
2022/05/19 04:33:11;;;;;;;34.78;9.57;;;;;;;6.89;100.00;62709.88;5086387;28;20377;-72
2022/05/19 04:35:39;;;;;;;38.47;10.48;;;;;;;6.99;100.00;62714.59;5085798;28;20418;-73
2022/05/19 04:38:07;;;;;;;23.75;9.27;;;;;;;7.57;100.00;62777.00;5072392;28;20247;-73
2022/05/19 04:40:38;;;;;;;27.50;8.57;;;;;;;7.87;100.00;62810.47;5079278;28;20548;-72
2022/05/19 04:43:05;;;;;;;18.92;9.07;;;;;;;7.67;100.00;62789.31;5085174;28;20196;-73
2022/05/19 04:45:33;;;;;;;16.20;9.05;;;;;;;7.98;100.00;62816.25;5083181;28;20480;-73
2022/05/19 04:48:01;;;;;;;27.02;9.35;;;;;;;7.81;100.00;62801.25;5067232;28;20212;-72
2022/05/19 04:50:29;;;;;;;16.92;7.65;;;;;;;7.75;100.00;62793.03;5083916;28;20278;-74
2022/05/19 04:52:58;;;;;;;22.90;7.35;;;;;;;7.95;100.00;62815.69;5085237;28;20531;-73
2022/05/19 04:55:25;;;;;;;10.48;7.60;;;;;;;8.02;100.00;62825.47;5081041;28;20212;-73
2022/05/19 04:57:52;;;;;;;11.35;7.70;;;;;;;8.25;100.00;62851.25;5084505;28;20215;-73
2022/05/19 05:00:20;;;;;;;17.50;8.48;;;;;;;8.44;100.00;62871.38;5083529;28;20457;-73
2022/05/19 05:02:47;;;;;;;9.70;7.85;;;;;;;8.92;100.00;62918.44;5084515;28;20200;-74
2022/05/19 05:05:15;;;;;;;12.80;8.45;;;;;;;9.33;100.00;62958.31;5079738;28;20561;-73
2022/05/19 05:07:42;;;;;;;10.00;8.73;;;;;;;9.31;100.00;62953.69;5082233;28;20215;-73
2022/05/19 05:10:09;;;;;;;10.50;8.32;;;;;;;9.06;100.00;62932.41;5083071;28;20414;-73
2022/05/19 05:12:36;;;;;;;11.98;7.80;;;;;;;8.07;100.00;62828.09;5085002;28;20201;-73
2022/05/19 05:15:04;;;;;;;12.38;7.85;;;;;;;7.49;100.00;62770.75;5083609;28;20216;-72
2022/05/19 05:17:31;;;;;;;8.05;7.15;;;;;;;7.14;100.00;62732.09;5085156;28;20204;-73
2022/05/19 05:19:58;;;;;;;9.68;8.00;;;;;;;7.45;100.00;62764.09;5085581;28;20216;-73
2022/05/19 05:22:26;;;;;;;10.77;8.80;;;;;;;7.56;100.00;62775.44;5083511;28;20212;-73
2022/05/19 05:24:53;;;;;;;11.52;8.18;;;;;;;7.75;100.00;62800.63;5068814;28;20205;-74
2022/05/19 05:27:20;;;;;;;14.75;9.48;;;;;;;7.56;100.00;62777.97;5081865;28;20256;-74
2022/05/19 05:29:47;;;;;;;13.32;9.50;;;;;;;7.41;100.00;62762.47;5085379;28;20285;-73
2022/05/19 05:32:14;;;;;;;12.48;10.45;;;;;;;7.91;100.00;62809.56;5075049;28;20224;-73
2022/05/19 05:34:40;;;;;;;13.93;10.32;;;;;;;7.88;100.00;62803.91;5065902;28;20217;-73
2022/05/19 05:37:08;;;;;;;11.70;10.32;;;;;;;7.89;100.00;62815.09;5084288;28;20193;-73
2022/05/19 05:39:36;;;;;;;13.68;10.52;;;;;;;8.03;100.00;62827.00;5084769;28;20267;-73
2022/05/19 05:42:05;;;;;;;13.05;10.43;;;;;;;8.10;100.00;62836.78;5082158;28;20528;-74
2022/05/19 05:44:32;;;;;;;16.50;10.85;;;;;;;8.10;100.00;62834.25;5082937;28;20225;-74
2022/05/19 05:46:59;;;;;;;14.48;10.43;;;;;;;8.08;100.00;62829.63;5084594;28;20240;-73
2022/05/19 05:49:26;;;;;;;13.80;11.25;;;;;;;8.31;100.00;62852.91;5081439;28;20533;-74
2022/05/19 05:51:52;;;;;;;14.35;11.20;;;;;;;8.41;100.00;62865.25;5076947;28;20196;-74
2022/05/19 05:54:19;;;;;;;15.70;11.82;;;;;;;8.68;100.00;62888.06;5067775;28;20227;-73
2022/05/19 05:56:47;;;;;;;15.23;11.07;;;;;;;8.57;100.00;62879.75;5083631;28;20196;-74
2022/05/19 05:59:14;;;;;;;18.02;11.55;;;;;;;8.40;100.00;62864.22;5078655;28;20267;-73
2022/05/19 06:01:41;;;;;;;12.18;10.70;;;;;;;8.57;100.00;62877.22;5079136;28;20555;-74
2022/05/19 06:04:08;;;;;;;15.10;11.82;;;;;;;8.49;100.00;62876.06;5083862;28;20204;-75
2022/05/19 06:06:34;;;;;;;16.85;11.55;;;;;;;8.33;100.00;62857.50;5085363;28;20231;-75
2022/05/19 06:09:02;;;;;;;15.88;11.80;;;;;;;8.52;100.00;62877.13;5083412;28;20498;-74
2022/05/19 06:11:28;;;;;;;15.38;11.93;;;;;;;8.74;100.00;62899.84;5082611;28;20204;-75
2022/05/19 06:13:57;;;;;;;18.52;11.32;;;;;;;8.80;100.00;62908.09;5083220;28;20200;-73
2022/05/19 06:16:23;;;;;;;15.57;11.27;;;;;;;8.92;100.00;62918.44;5083694;28;20486;-74
2022/05/19 06:18:50;;;;;;;20.48;11.15;;;;;;;8.68;100.00;62898.22;5085708;28;20201;-75
2022/05/19 06:21:17;;;;;;;14.38;11.13;;;;;;;8.81;100.00;62901.50;5087529;28;20193;-73
2022/05/19 06:23:44;;;;;;;18.25;12.38;;;;;;;8.92;100.00;62920.47;5085584;28;20209;-73
2022/05/19 06:26:11;;;;;;;17.05;11.25;;;;;;;9.08;100.00;62934.47;5077211;28;20259;-74
2022/05/19 06:28:42;;;;;;;13.77;10.45;;;;;;;9.27;100.00;62954.63;5090050;28;20224;-73
2022/05/19 06:31:11;;;;;;;10.15;8.98;;;;;;;9.35;100.00;62962.41;5090897;28;20209;-74
2022/05/19 06:33:38;;;;;;;16.73;9.65;;;;;;;9.43;100.00;62970.13;5079344;28;20272;-75
2022/05/19 06:36:09;;;;;;;12.35;9.13;;;;;;;9.47;100.00;62974.28;5086931;28;20219;-74
2022/05/19 06:38:36;;;;;;;14.20;9.50;;;;;;;9.63;100.00;62990.84;5088290;28;20196;-74
2022/05/19 06:43:53;;;;;;;15.40;10.25;;;;;;;9.70;100.00;62996.03;5084109;28;20253;-74
2022/05/19 06:46:22;;;;;;;10.63;9.52;;;;;;;9.84;100.00;63010.50;5086441;28;20247;-73
2022/05/19 06:48:49;;;;;;;14.75;10.27;;;;;;;9.94;100.00;63018.31;5093688;28;20203;-73
2022/05/19 06:51:16;;;;;;;11.25;9.73;;;;;;;10.24;100.00;63051.41;5089666;28;20197;-75
2022/05/19 06:53:42;;;;;;;12.10;9.30;;;;;;;10.34;100.00;63064.81;5084484;28;20223;-74
2022/05/19 06:56:10;;;;;;;12.25;9.38;;;;;;;10.45;100.00;63073.13;5077575;28;20478;-73
2022/05/19 06:58:37;;;;;;;13.77;8.45;;;;;;;10.54;100.00;63087.53;5076307;28;20217;-75
2022/05/19 07:01:04;;;;;;;9.30;8.40;;;;;;;10.64;100.00;63095.34;5082673;28;20247;-73
2022/05/19 07:03:33;;;;;;;10.88;7.65;;;;;;;10.80;100.00;63109.38;5080313;28;20200;-75
2022/05/19 07:05:59;;;;;;;13.60;8.05;;;;;;;10.91;100.00;63117.66;5081573;28;20239;-73
2022/05/19 07:08:26;;;;;;;11.70;8.90;;;;;;;10.96;100.00;63130.50;5083098;28;20200;-74
2022/05/19 07:10:53;;;;;;;8.02;6.60;;;;;;;10.92;100.00;63121.25;5083068;28;20442;-73
2022/05/19 07:13:21;;;;;;;10.32;8.68;;;;;;;10.98;100.00;63130.53;5084285;28;20201;-74
2022/05/19 07:15:47;;;;;;;12.27;8.68;;;;;;;10.97;100.00;63123.88;5080337;28;20216;-74
2022/05/19 07:18:14;;;;;;;11.88;9.05;;;;;;;11.14;100.00;63149.13;5084190;28;20223;-74
2022/05/19 07:20:44;;;;;;;9.80;8.65;;;;;;;11.23;100.00;63158.97;5084500;28;20239;-73
2022/05/19 07:23:14;;;;;;;7.53;5.40;;;;;;;11.18;95.97;63153.28;5084358;28;20238;-73
2022/05/19 07:25:41;;;;;;;7.60;6.07;;;;;;;11.37;96.50;63168.38;5088359;28;20216;-74
2022/05/19 07:28:08;;;;;;;11.90;8.23;;;;;;;11.45;99.71;63179.22;5075992;28;20232;-75
2022/05/19 07:30:36;;;;;;;11.60;10.18;;;;;;;11.57;100.00;63191.66;5084162;28;20274;-73
2022/05/19 07:33:06;;;;;;;17.02;8.90;;;;;;;11.68;100.00;63202.03;5085307;28;20196;-74
2022/05/19 07:35:34;;;;;;;9.98;6.22;;;;;;;11.72;96.34;63206.69;5089112;28;20216;-75
2022/05/19 07:38:02;;;;;;;6.10;5.30;;;;;;;11.69;92.17;63203.06;5083880;28;20238;-75
2022/05/19 07:40:29;;;;;;;7.05;4.70;;;;;;;11.98;88.16;63233.63;5084166;28;20217;-73
2022/05/19 07:43:35;;;;;;;6.03;4.40;;;;;;;12.12;86.05;63250.69;5079336;28;20445;-73
2022/05/19 07:45:45;;;;;;;6.28;5.68;;;;;;;12.31;91.18;63267.31;5082005;28;20472;-74
2022/05/19 07:48:12;;;;;;;13.77;6.60;;;;;;;12.61;94.59;63298.41;5086544;28;20228;-74
2022/05/19 07:50:39;;;;;;;10.90;5.55;;;;;;;12.74;92.97;63306.78;5082859;28;20224;-74
2022/05/19 07:53:07;;;;;;;10.60;6.07;;;;;;;12.71;90.29;63311.84;5078710;28;20193;-75
2022/05/19 07:55:34;;;;;;;5.65;4.78;;;;;;;12.77;86.36;63315.00;5085681;28;20217;-74
2022/05/19 07:58:01;;;;;;;8.15;4.55;;;;;;;12.81;82.08;63319.16;5084134;28;20232;-74
2022/05/19 08:00:28;;;;;;;7.63;4.05;;;;;;;12.96;82.96;63336.75;5082822;28;20227;-73
2022/05/19 08:02:54;;;;;;;4.18;3.38;;;;;;;13.15;79.66;63349.31;5080508;28;20200;-74
2022/05/19 08:05:21;;;;;;;4.63;3.80;;;;;;;13.31;79.68;63365.38;5072531;28;20221;-73
2022/05/19 08:07:48;;;;;;;6.03;4.50;;;;;;;13.41;81.86;63381.41;5086290;28;20235;-74
2022/05/19 08:10:24;;;;;;;7.55;4.07;;;;;;;13.50;81.36;63392.78;5094605;28;20555;-74
2022/05/19 08:15:48;;;;;;;4.72;4.25;;;;;;;13.66;78.49;63404.78;5096842;28;20559;-73
2022/05/19 08:18:19;;;;;;;5.28;3.67;;;;;;;13.74;77.24;63412.56;5086917;28;20276;-74
2022/05/19 08:20:48;;;;;;;4.85;3.05;;;;;;;14.06;74.79;63450.91;5084426;28;20225;-74
2022/05/19 08:23:18;;;;;;;3.10;2.80;;;;;;;14.10;73.93;63449.94;5076548;28;20223;-73
2022/05/19 08:25:47;;;;;;;5.15;2.65;;;;;;;14.30;71.31;63470.22;5081828;28;20529;-74
2022/05/19 08:28:14;;;;;;;3.63;3.33;;;;;;;14.39;69.17;63480.06;5080141;28;20221;-75
2022/05/19 08:30:42;;;;;;;4.20;2.42;;;;;;;14.26;62.58;63464.00;5093958;28;20220;-75
2022/05/19 08:33:09;;;;;;;1.02;1.02;;;;;;;14.24;49.22;63467.03;5089859;28;20498;-76
2022/05/19 08:35:36;;;;;;;1.02;0.80;;;;;;;14.39;43.78;63482.63;5085967;28;20240;-74
2022/05/19 08:38:03;;;;;;;2.58;0.93;;;;;;;14.58;42.37;63501.84;5085649;28;20496;-75
2022/05/19 08:40:34;;;;;;;1.20;0.60;;;;;;;14.77;42.54;63522.09;5080386;28;20405;-75
2022/05/19 08:43:02;;;;;;;1.48;0.88;;;;;;;15.00;42.34;63548.56;5073312;28;20498;-75
2022/05/19 08:45:32;;;;;;;7.85;1.00;;;;;;;15.01;38.85;63541.41;5070888;28;20228;-76
2022/05/19 08:48:05;;;;;;;0.80;0.80;;;;;;;15.01;41.33;63552.16;5070745;28;20259;-76
2022/05/19 08:50:38;;;;;;;2.28;0.90;;;;;;;15.15;43.18;63558.50;5075940;28;20236;-75
2022/05/19 08:53:06;;;;;;;2.90;0.82;;;;;;;15.04;41.11;63550.16;5086385;28;20200;-78
2022/05/19 08:55:33;;;;;;;0.55;0.55;;;;;;;14.63;41.31;63512.16;5087921;28;20284;-77
2022/05/19 08:58:11;;;;;;;1.30;1.20;;;;;;;14.53;42.27;63496.66;5082155;28;20272;-76
2022/05/19 09:00:43;;;;;;;1.00;0.98;;;;;;;14.54;42.08;63498.22;5073428;28;20224;-76
2022/05/19 09:03:20;;;;;;;1.55;1.05;;;;;;;14.64;42.90;63508.59;5077372;28;20205;-75
2022/05/19 09:06:14;;;;;;;2.25;1.02;;;;;;;14.75;41.45;63516.94;5081052;28;20220;-76
2022/05/19 09:08:56;;;;;;;8.48;2.33;;;;;;;14.85;45.68;63530.41;5085009;28;20235;-76
2022/05/19 09:11:29;;;;;;;1.45;1.35;;;;;;;15.14;45.41;63560.03;5085136;28;20623;-75
2022/05/19 09:14:03;;;;;;;1.85;1.27;;;;;;;15.33;43.80;63576.69;5080609;28;20196;-75
2022/05/19 09:16:32;;;;;;;4.25;1.50;;;;;;;15.48;46.73;63592.31;5078827;28;20395;-75
2022/05/19 09:19:06;;;;;;;2.75;1.17;;;;;;;15.57;46.64;63609.34;5085609;28;20487;-75
2022/05/19 09:21:34;;;;;;;2.80;1.10;;;;;;;15.74;45.59;63624.44;5085152;28;20228;-75
2022/05/19 09:24:01;;;;;;;0.90;0.90;;;;;;;15.98;46.33;63649.94;5069942;28;20238;-75
2022/05/19 09:26:41;;;;;;;1.17;1.10;;;;;;;16.04;45.78;63653.59;5073730;28;20196;-77
2022/05/19 09:29:14;;;;;;;1.13;1.13;;;;;;;16.14;46.58;63664.00;5085391;28;20207;-75
2022/05/19 09:31:43;;;;;;;4.43;1.55;;;;;;;16.17;45.67;63667.13;5086369;28;20184;-75
2022/05/19 09:34:11;;;;;;;2.38;1.10;;;;;;;16.25;41.54;63674.41;5086217;28;20284;-76
2022/05/19 09:36:42;;;;;;;1.25;1.05;;;;;;;16.17;40.71;63666.59;5082998;28;20261;-75
2022/05/19 09:39:14;;;;;;;3.65;1.15;;;;;;;15.97;41.21;63646.31;5086663;28;20373;-75
2022/05/19 09:41:46;;;;;;;1.05;0.90;;;;;;;16.00;40.53;63648.91;5085002;28;20504;-76
2022/05/19 09:44:17;;;;;;;1.20;1.20;;;;;;;15.91;41.30;63640.06;5082877;28;20575;-76
2022/05/19 09:46:48;;;;;;;0.90;0.90;;;;;;;15.62;42.42;63612.50;5084956;28;20200;-75
2022/05/19 09:49:25;;;;;;;1.67;1.20;;;;;;;15.87;46.34;63628.22;5085406;28;20211;-75
2022/05/19 09:51:52;;;;;;;3.30;1.25;;;;;;;16.13;45.23;63662.94;5076383;28;20206;-76
2022/05/19 09:54:22;;;;;;;2.10;0.98;;;;;;;16.27;44.58;63676.47;5081632;28;20224;-76
2022/05/19 09:56:51;;;;;;;3.13;1.60;;;;;;;16.38;45.03;63687.91;5081691;28;20196;-75
2022/05/19 09:59:23;;;;;;;3.50;1.77;;;;;;;16.38;46.79;63685.34;5085277;28;20220;-75
2022/05/19 10:01:51;;;;;;;1.55;1.50;;;;;;;16.60;45.44;63713.91;5079872;28;20272;-75
2022/05/19 10:04:25;;;;;;;4.13;1.65;;;;;;;16.74;42.11;63728.47;5076886;28;20227;-75
2022/05/19 10:06:55;;;;;;;2.05;1.30;;;;;;;16.72;40.86;63728.47;5071734;28;20195;-76
2022/05/19 10:09:24;;;;;;;3.00;1.95;;;;;;;16.75;41.48;63726.97;5084315;28;20238;-75
2022/05/19 10:11:56;;;;;;;1.98;1.33;;;;;;;16.60;40.51;63711.34;5081259;28;20302;-76
2022/05/19 10:14:29;;;;;;;1.67;1.30;;;;;;;16.52;41.23;63702.50;5083781;28;20223;-77
2022/05/19 10:17:07;;;;;;;4.90;1.80;;;;;;;16.56;41.20;63712.34;5083375;28;20188;-75
2022/05/19 10:19:45;;;;;;;4.45;1.38;;;;;;;16.66;41.85;63717.59;5082537;28;20215;-75
2022/05/19 10:22:33;;;;;;;2.20;1.60;;;;;;;16.71;41.23;63727.94;5103569;28;20477;-76
2022/05/19 10:25:38;;;;;;;3.58;1.63;;;;;;;16.81;40.99;63732.66;5086756;28;20220;-75
2022/05/19 10:31:18;;;;;;;1.55;1.48;;;;;;;16.51;39.51;63704.56;5085090;28;20411;-77
2022/05/19 10:33:57;;;;;;;2.60;1.45;;;;;;;16.30;38.90;63680.13;5086601;28;20208;-75
2022/05/19 10:36:34;;;;;;;1.80;1.52;;;;;;;16.42;40.58;63690.03;5082946;28;20196;-76
2022/05/19 10:39:15;;;;;;;1.77;1.50;;;;;;;16.52;39.96;63703.03;5085367;28;20245;-76
2022/05/19 10:41:53;;;;;;;1.80;1.70;;;;;;;16.59;39.33;63709.78;5083582;28;20485;-76
2022/05/19 10:44:48;;;;;;;1.33;1.27;;;;;;;16.72;41.67;63726.41;5083537;28;20287;-75
2022/05/19 10:47:31;;;;;;;2.17;1.40;;;;;;;16.86;39.90;63740.47;5084729;28;20218;-76
2022/05/19 10:50:26;;;;;;;3.33;1.85;;;;;;;16.78;39.69;63730.09;5063201;28;20216;-76
2022/05/19 10:53:17;;;;;;;4.18;1.60;;;;;;;16.87;41.12;63742.03;5050190;28;20203;-75
2022/05/19 10:56:00;;;;;;;1.60;1.50;;;;;;;17.08;39.64;63761.28;5083712;28;20480;-77
2022/05/19 10:58:56;;;;;;;1.17;1.17;;;;;;;17.20;39.82;63773.78;5084560;28;20204;-76
2022/05/19 11:01:36;;;;;;;1.63;1.52;;;;;;;17.22;39.52;63777.94;5084448;28;20219;-77
2022/05/19 11:04:25;;;;;;;2.15;1.38;;;;;;;17.06;35.88;63759.22;5084850;28;20255;-76
2022/05/19 11:07:06;;;;;;;1.17;1.17;;;;;;;17.13;38.26;63763.41;5081943;28;20212;-75
2022/05/19 11:09:49;;;;;;;2.15;1.80;;;;;;;17.23;37.66;63776.38;5064250;28;20224;-76
2022/05/19 11:12:27;;;;;;;2.80;1.83;;;;;;;17.35;38.39;63788.88;5074356;28;20207;-77
2022/05/19 11:15:04;;;;;;;3.17;1.20;;;;;;;17.28;38.22;63779.03;5084372;28;20258;-77
2022/05/19 11:17:40;;;;;;;1.73;1.63;;;;;;;16.96;37.88;63748.28;5092145;28;20276;-77
2022/05/19 11:20:13;;;;;;;3.50;1.75;;;;;;;17.04;39.87;63757.13;5088565;28;20223;-76
2022/05/19 11:22:42;;;;;;;1.80;1.70;;;;;;;17.13;37.76;63763.94;5085347;28;20211;-76
2022/05/19 11:28:04;;;;;;;3.13;1.90;;;;;;;17.20;37.00;63768.13;5080018;28;20278;-74
2022/05/19 11:30:40;;;;;;;1.80;1.60;;;;;;;17.50;40.14;63809.16;5090229;28;20299;-74
2022/05/19 11:33:16;;;;;;;1.80;1.70;;;;;;;17.70;41.64;63824.81;5089704;28;20191;-74
2022/05/19 11:35:47;;;;;;;2.60;1.60;;;;;;;17.75;43.47;63825.41;5093466;28;20218;-74
2022/05/19 11:38:22;;;;;;;3.30;1.17;;;;;;;18.01;43.63;63859.69;5087616;28;20230;-74
2022/05/19 11:40:54;;;;;;;2.05;1.25;;;;;;;18.06;45.04;63862.31;5093208;28;20224;-74
2022/05/19 11:43:27;;;;;;;1.52;1.38;;;;;;;18.31;40.95;63893.50;5093195;28;20208;-74
2022/05/19 11:45:59;;;;;;;1.35;1.08;;;;;;;18.24;36.43;63878.50;5088853;28;20224;-74
2022/05/19 11:57:14;;;;;;;2.28;1.70;;;;;;;18.64;34.41;63922.75;5074988;28;20380;-74
2022/05/19 11:59:47;;;;;;;2.88;1.40;;;;;;;18.80;34.55;63944.59;5080695;28;20281;-74
2022/05/19 12:02:24;;;;;;;2.17;1.38;;;;;;;19.02;34.39;63962.38;5080905;28;20540;-74
2022/05/19 12:04:54;;;;;;;1.67;1.52;;;;;;;19.37;34.64;63998.38;5081367;28;20224;-74